Time;durP1;ratioP1;P1;durP2;ratioP2;P2;SDS_P1;SDS_P2;PMS_P1;PMS_P2;Temp;Humidity;BMP_temperature;BMP_pressure;BME280_temperature;BME280_humidity;BME280_pressure;Samples;Min_cycle;Max_cycle;Signal;HPM_P1;HPM_P2
2023/06/23 00:00:51;;;;;;;3.67;3.28;;;;;23.20;101697.00;;;;5090416;28;20554;-79
2023/06/23 00:03:19;;;;;;;4.00;3.13;;;;;23.20;101698.00;;;;5088330;28;20190;-79
2023/06/23 00:05:47;;;;;;;3.85;3.22;;;;;23.20;101701.00;;;;5079399;28;20467;-79
2023/06/23 00:08:14;;;;;;;3.95;3.47;;;;;23.20;101713.00;;;;5086712;28;20233;-79
2023/06/23 00:10:43;;;;;;;3.65;2.83;;;;;23.10;101714.00;;;;5088213;28;20202;-79
2023/06/23 00:13:10;;;;;;;3.78;3.38;;;;;23.10;101704.00;;;;5084488;28;20327;-79
2023/06/23 00:15:38;;;;;;;5.35;3.53;;;;;23.10;101712.00;;;;5087671;28;20190;-78
2023/06/23 00:18:05;;;;;;;3.90;2.92;;;;;23.10;101709.00;;;;5087709;28;20190;-78
2023/06/23 00:20:33;;;;;;;3.92;3.42;;;;;23.10;101708.00;;;;5087530;28;20566;-79
2023/06/23 00:23:01;;;;;;;4.78;4.00;;;;;23.10;101719.00;;;;5084619;28;21285;-79
2023/06/23 00:25:29;;;;;;;4.63;3.33;;;;;23.00;101721.00;;;;5088860;28;20201;-79
2023/06/23 00:27:56;;;;;;;3.72;3.20;;;;;23.00;101717.00;;;;5086901;28;20222;-79
2023/06/23 00:30:23;;;;;;;4.15;3.58;;;;;23.00;101718.00;;;;5088676;28;20190;-78
2023/06/23 00:32:51;;;;;;;5.63;3.78;;;;;23.00;101723.00;;;;5087715;28;20226;-79
2023/06/23 00:35:19;;;;;;;5.30;3.85;;;;;22.90;101718.00;;;;5088364;28;20194;-79
2023/06/23 00:37:46;;;;;;;5.80;4.32;;;;;22.90;101722.00;;;;5087901;28;20210;-78
2023/06/23 00:40:16;;;;;;;4.95;4.20;;;;;22.90;101731.00;;;;5068860;28;20594;-78
2023/06/23 00:42:47;;;;;;;4.38;3.97;;;;;22.90;101734.00;;;;5086705;28;20202;-79
2023/06/23 00:45:15;;;;;;;5.00;4.03;;;;;22.90;101740.00;;;;5088515;28;20194;-79
2023/06/23 00:47:43;;;;;;;5.18;4.32;;;;;22.90;101751.00;;;;5082715;28;20229;-79
2023/06/23 00:50:13;;;;;;;5.18;4.53;;;;;22.90;101746.00;;;;5087655;28;20225;-79
2023/06/23 00:52:40;;;;;;;6.22;4.78;;;;;22.90;101748.00;;;;5087385;28;20229;-79
2023/06/23 00:55:08;;;;;;;5.68;4.38;;;;;22.90;101740.00;;;;5084900;28;20202;-79
2023/06/23 00:57:37;;;;;;;5.55;4.57;;;;;22.80;101741.00;;;;5087322;28;20202;-78
2023/06/23 01:00:13;;;;;;;5.18;4.50;;;;;22.90;101744.00;;;;5087291;28;20194;-78
2023/06/23 01:02:41;;;;;;;6.20;5.00;;;;;22.90;101754.00;;;;5071849;28;20640;-79
2023/06/23 01:05:09;;;;;;;6.18;4.68;;;;;22.80;101756.00;;;;5088207;28;20313;-79
2023/06/23 01:07:45;;;;;;;7.10;4.90;;;;;22.80;101761.00;;;;5088529;28;20218;-79
2023/06/23 01:10:18;;;;;;;5.80;4.72;;;;;22.80;101762.00;;;;5086832;28;20194;-79
2023/06/23 01:12:54;;;;;;;4.30;3.90;;;;;22.80;101775.00;;;;5071499;28;20218;-79
2023/06/23 01:15:27;;;;;;;5.32;4.55;;;;;22.80;101782.00;;;;5087776;28;20198;-79
2023/06/23 01:17:59;;;;;;;7.78;5.70;;;;;22.80;101787.00;;;;5087937;28;20201;-79
2023/06/23 01:20:29;;;;;;;5.72;5.13;;;;;22.80;101788.00;;;;5086143;28;20194;-79
2023/06/23 01:23:22;;;;;;;6.32;4.88;;;;;22.80;101793.00;;;;5084354;28;20199;-79
2023/06/23 01:25:55;;;;;;;7.03;5.78;;;;;22.80;101800.00;;;;5085915;28;20206;-79
2023/06/23 01:28:48;;;;;;;9.05;6.95;;;;;22.70;101806.00;;;;5087063;28;20595;-79
2023/06/23 01:31:20;;;;;;;9.52;7.40;;;;;22.80;101800.00;;;;5085717;28;20205;-78
2023/06/23 01:33:50;;;;;;;9.85;7.35;;;;;22.80;101809.00;;;;5085456;28;20248;-79
2023/06/23 01:36:25;;;;;;;9.68;7.40;;;;;22.80;101808.00;;;;5086855;28;20205;-79
2023/06/23 01:38:57;;;;;;;10.00;6.78;;;;;22.80;101812.00;;;;5087930;28;20293;-79
2023/06/23 01:41:29;;;;;;;8.63;7.10;;;;;22.80;101814.00;;;;5082524;28;20623;-79
2023/06/23 01:43:59;;;;;;;8.57;7.32;;;;;22.70;101809.00;;;;5086553;28;20213;-79
2023/06/23 01:46:34;;;;;;;9.32;6.90;;;;;22.70;101807.00;;;;5068989;28;20206;-79
2023/06/23 01:49:10;;;;;;;11.95;8.27;;;;;22.70;101799.00;;;;5079073;28;20783;-79
2023/06/23 01:51:41;;;;;;;9.15;7.05;;;;;22.70;101798.00;;;;5088040;28;20613;-79
2023/06/23 01:54:09;;;;;;;8.65;6.72;;;;;22.70;101803.00;;;;5084559;28;20194;-79
2023/06/23 01:56:38;;;;;;;9.82;6.82;;;;;22.70;101812.00;;;;5086433;28;20205;-79
2023/06/23 01:59:08;;;;;;;19.60;6.85;;;;;22.70;101823.00;;;;5086681;28;20202;-79
2023/06/23 02:01:38;;;;;;;7.80;6.40;;;;;22.60;101822.00;;;;5086123;28;20437;-78
2023/06/23 02:04:06;;;;;;;8.23;6.75;;;;;22.60;101823.00;;;;5075926;28;20199;-79
2023/06/23 02:06:37;;;;;;;8.57;6.30;;;;;22.60;101825.00;;;;5079630;28;20213;-79
2023/06/23 02:09:06;;;;;;;7.45;6.35;;;;;22.60;101823.00;;;;5086545;28;20233;-79
2023/06/23 02:11:35;;;;;;;8.85;5.78;;;;;22.60;101822.00;;;;5085288;28;20199;-79
2023/06/23 02:14:03;;;;;;;7.80;6.68;;;;;22.60;101821.00;;;;5086269;28;20194;-79
2023/06/23 02:16:34;;;;;;;7.82;6.22;;;;;22.60;101821.00;;;;5087203;28;21018;-79
2023/06/23 02:19:03;;;;;;;9.13;6.70;;;;;22.60;101826.00;;;;5085656;28;20209;-79
2023/06/23 02:21:32;;;;;;;7.07;5.90;;;;;22.60;101821.00;;;;5084086;28;20198;-78
2023/06/23 02:24:04;;;;;;;11.52;6.43;;;;;22.50;101823.00;;;;5084140;28;20195;-79
2023/06/23 02:26:32;;;;;;;7.45;6.32;;;;;22.50;101833.00;;;;5085183;28;20542;-79
2023/06/23 02:29:00;;;;;;;7.18;5.93;;;;;22.50;101834.00;;;;5086503;28;20230;-79
2023/06/23 02:31:27;;;;;;;11.27;6.35;;;;;22.50;101838.00;;;;5083477;28;20561;-79
2023/06/23 02:33:56;;;;;;;6.40;5.60;;;;;22.50;101850.00;;;;5086344;28;20220;-78
2023/06/23 02:36:28;;;;;;;9.48;6.63;;;;;22.50;101854.00;;;;5079590;28;20190;-78
2023/06/23 02:38:57;;;;;;;6.63;5.95;;;;;22.40;101862.00;;;;5088400;28;20202;-79
2023/06/23 02:41:30;;;;;;;7.22;6.15;;;;;22.40;101870.00;;;;5089099;28;20664;-79
2023/06/23 02:44:02;;;;;;;6.28;5.43;;;;;22.40;101870.00;;;;5086305;28;20568;-79
2023/06/23 02:46:38;;;;;;;6.30;5.70;;;;;22.40;101878.00;;;;5090231;28;20198;-78
2023/06/23 02:49:11;;;;;;;6.75;5.50;;;;;22.40;101872.00;;;;5090729;28;20232;-78
2023/06/23 02:51:39;;;;;;;6.28;5.38;;;;;22.40;101877.00;;;;5088535;28;20213;-79
2023/06/23 02:54:12;;;;;;;7.53;6.28;;;;;22.30;101886.00;;;;5086676;28;20226;-79
2023/06/23 02:56:43;;;;;;;7.45;6.43;;;;;22.30;101893.00;;;;5086771;28;20198;-79
2023/06/23 02:59:14;;;;;;;8.00;5.35;;;;;22.30;101896.00;;;;5089639;28;20302;-79
2023/06/23 03:01:45;;;;;;;6.90;5.50;;;;;22.30;101902.00;;;;5090290;28;20263;-79
2023/06/23 03:04:13;;;;;;;8.60;6.22;;;;;22.30;101900.00;;;;5090357;28;20198;-79
2023/06/23 03:06:43;;;;;;;7.75;6.80;;;;;22.30;101889.00;;;;5090193;28;20198;-78
2023/06/23 03:09:11;;;;;;;9.15;6.30;;;;;22.20;101888.00;;;;5088229;28;20260;-79
2023/06/23 03:11:39;;;;;;;11.80;6.47;;;;;22.20;101884.00;;;;5082020;28;20207;-78
2023/06/23 03:14:07;;;;;;;7.68;6.30;;;;;22.20;101881.00;;;;5086613;28;20190;-78
2023/06/23 03:16:39;;;;;;;7.97;6.47;;;;;22.20;101887.00;;;;5089208;28;20289;-79
2023/06/23 03:19:17;;;;;;;9.05;6.43;;;;;22.10;101893.00;;;;5089838;28;20617;-78
2023/06/23 03:21:51;;;;;;;6.97;6.28;;;;;22.10;101901.00;;;;5089293;28;20198;-78
2023/06/23 03:24:19;;;;;;;11.55;6.75;;;;;22.10;101902.00;;;;5086521;28;20214;-78
2023/06/23 03:26:49;;;;;;;7.68;6.78;;;;;22.10;101906.00;;;;5090217;28;20206;-78
2023/06/23 03:29:21;;;;;;;8.98;6.90;;;;;22.10;101908.00;;;;5081454;28;20275;-78
2023/06/23 03:31:51;;;;;;;8.00;6.50;;;;;22.10;101913.00;;;;5088883;28;20226;-79
2023/06/23 03:34:21;;;;;;;8.43;6.82;;;;;22.10;101915.00;;;;5088925;28;20720;-78
2023/06/23 03:36:52;;;;;;;7.75;6.18;;;;;22.10;101919.00;;;;5087669;28;20977;-78
2023/06/23 03:39:23;;;;;;;8.98;7.68;;;;;22.10;101922.00;;;;5090857;28;20190;-78
2023/06/23 03:41:52;;;;;;;8.80;7.75;;;;;22.00;101918.00;;;;5089372;28;20205;-78
2023/06/23 03:44:26;;;;;;;9.52;7.90;;;;;22.00;101914.00;;;;5089389;28;20568;-78
2023/06/23 03:46:57;;;;;;;9.05;7.20;;;;;22.00;101921.00;;;;5071956;28;20202;-78
2023/06/23 03:49:31;;;;;;;9.80;7.95;;;;;22.00;101923.00;;;;5070852;28;20230;-78
2023/06/23 03:52:00;;;;;;;8.73;7.30;;;;;22.00;101919.00;;;;5087979;28;20205;-79
2023/06/23 03:54:29;;;;;;;8.77;7.70;;;;;22.00;101922.00;;;;5085873;28;20205;-79
2023/06/23 03:56:57;;;;;;;8.27;7.03;;;;;22.00;101923.00;;;;5089337;28;20198;-78
2023/06/23 03:59:27;;;;;;;9.82;8.00;;;;;22.00;101925.00;;;;5090388;28;20187;-79
2023/06/23 04:01:56;;;;;;;9.77;7.63;;;;;22.00;101922.00;;;;5085507;28;20202;-79
2023/06/23 04:04:24;;;;;;;8.43;7.60;;;;;22.00;101931.00;;;;5085011;28;20209;-79
2023/06/23 04:06:54;;;;;;;10.75;8.25;;;;;21.90;101939.00;;;;5088852;28;20579;-79
2023/06/23 04:09:22;;;;;;;11.45;9.80;;;;;21.90;101939.00;;;;5084289;28;20217;-78
2023/06/23 04:11:53;;;;;;;13.27;9.75;;;;;21.90;101939.00;;;;5079915;28;20234;-79
2023/06/23 04:14:22;;;;;;;9.82;7.95;;;;;21.90;101938.00;;;;5071285;28;20188;-79
2023/06/23 04:16:52;;;;;;;10.45;9.25;;;;;21.90;101939.00;;;;5085834;28;20190;-79
2023/06/23 04:19:24;;;;;;;10.40;8.30;;;;;21.90;101938.00;;;;5085174;28;20205;-79
2023/06/23 04:21:53;;;;;;;12.18;9.15;;;;;22.00;101937.00;;;;5088700;28;20587;-79
2023/06/23 04:24:22;;;;;;;11.55;9.90;;;;;22.00;101940.00;;;;5088919;28;20581;-79
2023/06/23 04:26:51;;;;;;;13.57;9.43;;;;;22.00;101947.00;;;;5087272;28;20201;-79
2023/06/23 04:29:21;;;;;;;12.25;9.60;;;;;22.00;101952.00;;;;5087298;28;20229;-79
2023/06/23 04:31:52;;;;;;;10.93;9.27;;;;;22.00;101966.00;;;;5087916;28;20226;-79
2023/06/23 04:34:19;;;;;;;15.07;10.23;;;;;22.00;101960.00;;;;5085164;28;20199;-79
2023/06/23 04:36:49;;;;;;;13.18;10.88;;;;;22.00;101968.00;;;;5086919;28;20694;-78
2023/06/23 04:39:27;;;;;;;12.90;10.52;;;;;22.00;101964.00;;;;5089355;28;20186;-80
2023/06/23 04:41:57;;;;;;;12.75;10.25;;;;;22.10;101974.00;;;;5088079;28;20659;-81
2023/06/23 04:44:28;;;;;;;13.75;11.63;;;;;22.10;101976.00;;;;5088453;28;20721;-81
2023/06/23 04:46:58;;;;;;;14.70;10.52;;;;;22.20;101983.00;;;;5077859;28;20197;-81
2023/06/23 04:49:28;;;;;;;14.02;10.18;;;;;22.20;101978.00;;;;5088610;28;20214;-81
2023/06/23 04:51:59;;;;;;;13.52;10.55;;;;;22.20;101981.00;;;;5087346;28;20727;-81
2023/06/23 04:54:38;;;;;;;14.68;11.65;;;;;22.20;101980.00;;;;5086597;28;20200;-81
2023/06/23 04:57:11;;;;;;;14.65;11.40;;;;;22.30;101984.00;;;;5087197;28;20285;-80
2023/06/23 04:59:40;;;;;;;17.10;12.25;;;;;22.40;101982.00;;;;5087622;28;20213;-81
2023/06/23 05:02:09;;;;;;;14.82;11.60;;;;;22.40;101995.00;;;;5088561;28;20194;-81
2023/06/23 05:04:38;;;;;;;18.83;12.18;;;;;22.50;101992.00;;;;5089101;28;20237;-81
2023/06/23 05:07:07;;;;;;;17.60;12.85;;;;;22.50;101991.00;;;;5087478;28;20186;-81
2023/06/23 05:09:36;;;;;;;17.05;11.75;;;;;22.60;101990.00;;;;5089451;28;20210;-80
2023/06/23 05:12:07;;;;;;;17.02;12.05;;;;;22.60;101985.00;;;;5083207;28;20214;-81
2023/06/23 05:14:36;;;;;;;14.95;11.60;;;;;22.70;101995.00;;;;5086583;28;20677;-80
2023/06/23 05:17:05;;;;;;;17.95;11.57;;;;;22.70;101996.00;;;;5083190;28;20244;-80
2023/06/23 05:19:35;;;;;;;15.60;11.73;;;;;22.80;101992.00;;;;5087300;28;20197;-81
2023/06/23 05:22:08;;;;;;;17.77;12.93;;;;;22.80;102000.00;;;;5083921;28;20285;-80
2023/06/23 05:24:38;;;;;;;17.77;12.82;;;;;22.90;102007.00;;;;5085899;28;20243;-81
2023/06/23 05:27:08;;;;;;;17.60;13.07;;;;;22.90;102009.00;;;;5085504;28;20214;-81
2023/06/23 05:29:39;;;;;;;17.58;12.45;;;;;23.00;102011.00;;;;5076592;28;20233;-81
2023/06/23 05:32:09;;;;;;;18.20;13.15;;;;;23.00;102010.00;;;;5085991;28;20574;-79
2023/06/23 05:34:37;;;;;;;17.00;12.40;;;;;23.10;102014.00;;;;5087400;28;20209;-81
2023/06/23 05:37:06;;;;;;;17.85;11.77;;;;;23.10;102018.00;;;;5088435;28;20493;-81
2023/06/23 05:39:39;;;;;;;18.27;12.77;;;;;23.20;102022.00;;;;5086921;28;20281;-80
2023/06/23 05:42:07;;;;;;;19.10;13.07;;;;;23.20;102022.00;;;;5086916;28;20672;-77
2023/06/23 05:44:34;;;;;;;18.13;12.05;;;;;23.30;102026.00;;;;5080177;28;20291;-78
2023/06/23 05:47:04;;;;;;;18.38;11.88;;;;;23.30;102030.00;;;;5084668;28;20567;-78
2023/06/23 05:49:34;;;;;;;20.83;13.10;;;;;23.40;102028.00;;;;5086239;28;20210;-77
2023/06/23 05:52:05;;;;;;;17.58;11.82;;;;;23.40;102033.00;;;;5084664;28;20190;-77
2023/06/23 05:54:37;;;;;;;22.50;14.00;;;;;23.40;102030.00;;;;5084686;28;20194;-78
2023/06/23 05:57:11;;;;;;;17.50;12.27;;;;;23.40;102028.00;;;;5087892;28;20191;-76
2023/06/23 05:59:42;;;;;;;19.00;12.68;;;;;23.50;102029.00;;;;5086847;28;20574;-76
2023/06/23 06:02:18;;;;;;;18.13;13.10;;;;;23.50;102032.00;;;;5086171;28;20206;-77
2023/06/23 06:04:51;;;;;;;16.63;11.90;;;;;23.50;102038.00;;;;5086516;28;20316;-76
2023/06/23 06:07:20;;;;;;;16.05;11.82;;;;;23.60;102044.00;;;;5088858;28;20209;-76
2023/06/23 06:09:49;;;;;;;17.00;11.77;;;;;23.60;102051.00;;;;5092046;28;20225;-76
2023/06/23 06:12:19;;;;;;;15.23;11.77;;;;;23.70;102056.00;;;;5092380;28;20214;-77
2023/06/23 06:14:48;;;;;;;15.95;11.73;;;;;23.70;102057.00;;;;5089887;28;20202;-77
2023/06/23 06:17:16;;;;;;;15.68;11.27;;;;;23.70;102061.00;;;;5091064;28;20209;-77
2023/06/23 06:19:45;;;;;;;17.63;11.68;;;;;23.80;102060.00;;;;5087663;28;20198;-76
2023/06/23 06:22:14;;;;;;;17.48;12.18;;;;;23.80;102059.00;;;;5090623;28;20194;-79
2023/06/23 06:24:43;;;;;;;19.13;13.02;;;;;23.80;102057.00;;;;5092365;28;20194;-79
2023/06/23 06:27:11;;;;;;;15.60;10.30;;;;;23.90;102063.00;;;;5090574;28;20206;-79
2023/06/23 06:29:41;;;;;;;15.88;11.32;;;;;23.90;102072.00;;;;5088878;28;20233;-78
2023/06/23 06:32:10;;;;;;;15.77;11.75;;;;;24.00;102073.00;;;;5090133;28;20228;-79
2023/06/23 06:34:39;;;;;;;16.58;12.18;;;;;24.00;102080.00;;;;5089783;28;20202;-79
2023/06/23 06:37:08;;;;;;;15.18;11.63;;;;;24.10;102076.00;;;;5091429;28;20298;-79
2023/06/23 06:39:38;;;;;;;14.23;10.98;;;;;24.10;102075.00;;;;5091319;28;20205;-79
2023/06/23 06:42:07;;;;;;;16.73;11.45;;;;;24.20;102082.00;;;;5090591;28;20199;-78
2023/06/23 06:44:34;;;;;;;17.30;11.57;;;;;24.30;102086.00;;;;5089555;28;20203;-78
2023/06/23 06:47:05;;;;;;;14.18;10.88;;;;;24.30;102089.00;;;;5086703;28;20201;-79
2023/06/23 06:49:34;;;;;;;16.95;11.88;;;;;24.40;102090.00;;;;5088673;28;20226;-79
2023/06/23 06:52:04;;;;;;;14.50;10.75;;;;;24.50;102096.00;;;;5090580;28;20190;-79
2023/06/23 06:54:31;;;;;;;17.75;11.07;;;;;24.60;102091.00;;;;5091327;28;20190;-78
2023/06/23 06:56:59;;;;;;;17.48;10.85;;;;;24.70;102092.00;;;;5091567;28;20274;-79
2023/06/23 06:59:27;;;;;;;13.57;10.05;;;;;24.70;102096.00;;;;5090832;28;20553;-79
2023/06/23 07:01:54;;;;;;;16.13;10.60;;;;;24.80;102091.00;;;;5091093;28;20183;-79
2023/06/23 07:04:24;;;;;;;15.40;10.43;;;;;24.90;102096.00;;;;5091159;28;20582;-78
2023/06/23 07:06:55;;;;;;;12.43;9.57;;;;;25.00;102102.00;;;;5075277;28;20611;-79
2023/06/23 07:09:22;;;;;;;12.35;9.65;;;;;25.10;102098.00;;;;5071848;28;20222;-79
2023/06/23 07:11:50;;;;;;;14.73;9.15;;;;;25.20;102098.00;;;;5071089;28;20223;-79
2023/06/23 07:14:17;;;;;;;12.73;8.45;;;;;25.30;102110.00;;;;5070452;28;20290;-79
2023/06/23 07:16:45;;;;;;;11.30;7.90;;;;;25.40;102110.00;;;;5070973;28;20195;-79
2023/06/23 07:19:12;;;;;;;13.98;8.50;;;;;25.50;102113.00;;;;5085409;28;20198;-79
2023/06/23 07:21:41;;;;;;;10.38;7.82;;;;;25.60;102103.00;;;;5089998;28;20203;-79
2023/06/23 07:24:09;;;;;;;8.90;7.45;;;;;25.70;102100.00;;;;5090276;28;20216;-78
2023/06/23 07:26:37;;;;;;;10.32;7.72;;;;;25.80;102106.00;;;;5083099;28;20203;-78
2023/06/23 07:29:04;;;;;;;9.15;6.95;;;;;25.90;102112.00;;;;5071007;28;20223;-78
2023/06/23 07:31:33;;;;;;;10.00;7.13;;;;;26.00;102104.00;;;;5070572;28;20210;-79
2023/06/23 07:34:01;;;;;;;6.90;6.20;;;;;26.10;102106.00;;;;5070343;28;20195;-78
2023/06/23 07:36:28;;;;;;;8.30;6.68;;;;;26.20;102112.00;;;;5070156;28;20211;-79
2023/06/23 07:38:57;;;;;;;6.60;5.63;;;;;26.20;102110.00;;;;5086085;28;20214;-78
2023/06/23 07:41:25;;;;;;;6.55;5.03;;;;;26.40;102120.00;;;;5090627;28;20198;-79
2023/06/23 07:43:52;;;;;;;5.95;5.03;;;;;26.50;102121.00;;;;5080658;28;20716;-78
2023/06/23 07:46:19;;;;;;;8.90;5.78;;;;;26.60;102125.00;;;;5081189;28;20198;-78
2023/06/23 07:48:46;;;;;;;7.68;4.57;;;;;26.70;102130.00;;;;5088931;28;20205;-78
2023/06/23 07:51:14;;;;;;;6.30;5.20;;;;;26.80;102119.00;;;;5090713;28;20194;-78
2023/06/23 07:53:41;;;;;;;5.22;4.68;;;;;26.80;102126.00;;;;5090169;28;20194;-78
2023/06/23 07:56:12;;;;;;;5.22;4.72;;;;;26.90;102120.00;;;;5090257;28;20206;-79
2023/06/23 07:58:39;;;;;;;6.70;5.55;;;;;27.00;102120.00;;;;5090422;28;20248;-79
2023/06/23 08:01:07;;;;;;;8.65;5.07;;;;;27.10;102121.00;;;;5077902;28;20214;-78
2023/06/23 08:03:34;;;;;;;5.35;3.90;;;;;27.10;102128.00;;;;5070098;28;20669;-79
2023/06/23 08:06:01;;;;;;;8.40;5.18;;;;;27.20;102128.00;;;;5069441;28;20199;-79
2023/06/23 08:08:28;;;;;;;5.22;4.63;;;;;27.30;102129.00;;;;5070751;28;20402;-79
2023/06/23 08:10:56;;;;;;;8.48;4.90;;;;;27.40;102130.00;;;;5089867;28;20222;-79
2023/06/23 08:13:24;;;;;;;5.07;4.20;;;;;27.50;102135.00;;;;5090220;28;20213;-79
2023/06/23 08:15:52;;;;;;;4.80;4.38;;;;;27.60;102129.00;;;;5088911;28;20206;-78
2023/06/23 08:18:19;;;;;;;5.40;4.30;;;;;27.60;102135.00;;;;5075976;28;20802;-79
2023/06/23 08:20:46;;;;;;;4.88;4.22;;;;;27.70;102127.00;;;;5069889;28;20211;-79
2023/06/23 08:23:14;;;;;;;4.30;3.90;;;;;27.80;102134.00;;;;5089215;28;20729;-79
2023/06/23 08:25:42;;;;;;;4.30;3.55;;;;;27.90;102136.00;;;;5089808;28;20202;-79
2023/06/23 08:28:09;;;;;;;3.97;3.50;;;;;27.90;102141.00;;;;5089919;28;20251;-79
2023/06/23 08:30:38;;;;;;;4.72;4.28;;;;;28.00;102139.00;;;;5089443;28;20218;-79
2023/06/23 08:33:05;;;;;;;4.55;3.83;;;;;28.10;102145.00;;;;5088905;28;20233;-79
2023/06/23 08:35:33;;;;;;;3.97;3.60;;;;;28.10;102143.00;;;;5073715;28;20195;-79
2023/06/23 08:38:00;;;;;;;5.00;3.70;;;;;28.20;102148.00;;;;5077320;28;20193;-79
2023/06/23 08:40:28;;;;;;;4.15;3.72;;;;;28.20;102144.00;;;;5089144;28;20194;-78
2023/06/23 08:42:55;;;;;;;5.63;4.07;;;;;28.30;102148.00;;;;5089507;28;20209;-78
2023/06/23 08:45:25;;;;;;;4.50;4.10;;;;;28.30;102145.00;;;;5088522;28;20194;-78
2023/06/23 08:47:58;;;;;;;4.55;3.95;;;;;28.40;102156.00;;;;5089598;28;20198;-78
2023/06/23 08:50:26;;;;;;;4.47;3.83;;;;;28.50;102157.00;;;;5089246;28;20718;-79
2023/06/23 08:52:53;;;;;;;4.85;3.47;;;;;28.60;102159.00;;;;5089008;28;20232;-78
2023/06/23 08:55:21;;;;;;;4.72;4.32;;;;;28.70;102168.00;;;;5089441;28;20195;-79
2023/06/23 08:57:48;;;;;;;4.53;4.13;;;;;28.80;102170.00;;;;5088709;28;20205;-79
2023/06/23 09:00:16;;;;;;;5.25;3.95;;;;;28.90;102169.00;;;;5089637;28;20244;-79
2023/06/23 09:02:44;;;;;;;4.75;4.03;;;;;29.00;102184.00;;;;5089531;28;20668;-79
2023/06/23 09:05:12;;;;;;;4.85;4.22;;;;;29.10;102177.00;;;;5089601;28;20202;-81
2023/06/23 09:07:40;;;;;;;4.55;4.15;;;;;29.20;102185.00;;;;5089281;28;20601;-79
2023/06/23 09:10:08;;;;;;;4.13;3.55;;;;;29.30;102183.00;;;;5077992;28;20221;-79
2023/06/23 09:12:35;;;;;;;5.05;3.83;;;;;29.30;102195.00;;;;5088192;28;20217;-80
2023/06/23 09:15:04;;;;;;;4.15;3.47;;;;;29.40;102188.00;;;;5087728;28;20203;-79
2023/06/23 09:17:32;;;;;;;3.80;3.28;;;;;29.50;102189.00;;;;5087797;28;20577;-79
2023/06/23 09:20:00;;;;;;;6.38;3.92;;;;;29.60;102199.00;;;;5088077;28;20571;-79
2023/06/23 09:22:29;;;;;;;4.85;3.28;;;;;29.60;102197.00;;;;5085944;28;20202;-79
2023/06/23 09:24:56;;;;;;;3.75;3.35;;;;;29.70;102197.00;;;;5085140;28;20284;-79
2023/06/23 09:27:40;;;;;;;7.05;3.03;;;;;29.70;102200.00;;;;5080970;28;20218;-79
2023/06/23 09:30:09;;;;;;;3.80;2.75;;;;;29.80;102203.00;;;;5086743;28;20311;-78
2023/06/23 09:32:36;;;;;;;3.22;2.50;;;;;29.90;102202.00;;;;5087494;28;20232;-79
2023/06/23 09:35:05;;;;;;;5.07;3.45;;;;;29.90;102201.00;;;;5088031;28;20201;-79
2023/06/23 09:37:37;;;;;;;9.32;3.03;;;;;29.90;102213.00;;;;5087303;28;20205;-79
2023/06/23 09:40:06;;;;;;;3.10;2.80;;;;;30.00;102202.00;;;;5087885;28;20206;-79
2023/06/23 09:42:34;;;;;;;4.43;2.60;;;;;30.10;102209.00;;;;5079808;28;20203;-79
2023/06/23 09:45:01;;;;;;;3.00;2.60;;;;;30.20;102208.00;;;;5067681;28;20211;-79
2023/06/23 09:47:29;;;;;;;3.83;2.40;;;;;30.30;102212.00;;;;5067387;28;20199;-79
2023/06/23 09:49:57;;;;;;;10.30;2.72;;;;;30.40;102217.00;;;;5067851;28;20341;-79
2023/06/23 09:52:26;;;;;;;3.97;2.35;;;;;30.40;102213.00;;;;5078910;28;20664;-79
2023/06/23 09:54:56;;;;;;;3.30;2.08;;;;;30.40;102216.00;;;;5088240;28;20198;-79
2023/06/23 09:57:23;;;;;;;2.95;2.42;;;;;30.50;102217.00;;;;5087869;28;20198;-80
2023/06/23 09:59:53;;;;;;;2.50;2.30;;;;;30.60;102226.00;;;;5082450;28;20206;-79
2023/06/23 10:02:22;;;;;;;5.95;2.63;;;;;30.60;102217.00;;;;5073580;28;20198;-79
2023/06/23 10:04:49;;;;;;;3.10;2.08;;;;;30.70;102219.00;;;;5088152;28;20205;-79
2023/06/23 10:07:21;;;;;;;2.95;2.65;;;;;30.70;102221.00;;;;5088209;28;20202;-78
2023/06/23 10:09:54;;;;;;;3.03;2.33;;;;;30.70;102211.00;;;;5088218;28;20280;-79
2023/06/23 10:12:23;;;;;;;2.40;2.08;;;;;30.80;102214.00;;;;5088458;28;20218;-79
2023/06/23 10:14:51;;;;;;;2.42;2.15;;;;;30.80;102217.00;;;;5088282;28;20190;-79
2023/06/23 10:17:19;;;;;;;3.00;2.58;;;;;30.90;102214.00;;;;5084589;28;20204;-79
2023/06/23 10:19:46;;;;;;;2.40;2.20;;;;;30.90;102218.00;;;;5088290;28;20202;-79
2023/06/23 10:22:16;;;;;;;2.67;2.00;;;;;30.90;102216.00;;;;5086860;28;20198;-79
2023/06/23 10:24:45;;;;;;;2.22;2.03;;;;;31.00;102210.00;;;;5088495;28;20530;-79
2023/06/23 10:27:21;;;;;;;4.10;2.28;;;;;31.00;102209.00;;;;5088195;28;20194;-79
2023/06/23 10:29:52;;;;;;;3.63;2.45;;;;;31.10;102213.00;;;;5087881;28;20229;-79
2023/06/23 10:32:23;;;;;;;5.80;2.20;;;;;31.10;102210.00;;;;5086447;28;20228;-80
2023/06/23 10:34:52;;;;;;;2.47;2.17;;;;;31.10;102211.00;;;;5085323;28;20209;-79
2023/06/23 10:37:23;;;;;;;5.25;2.50;;;;;31.10;102209.00;;;;5087992;28;20209;-79
2023/06/23 10:39:52;;;;;;;3.15;2.25;;;;;31.20;102212.00;;;;5087386;28;20247;-80
2023/06/23 10:42:22;;;;;;;2.90;2.45;;;;;31.30;102222.00;;;;5076950;28;20563;-79
2023/06/23 10:44:50;;;;;;;3.15;2.17;;;;;31.40;102222.00;;;;5077611;28;20248;-80
2023/06/23 10:47:18;;;;;;;2.65;2.28;;;;;31.40;102222.00;;;;5087104;28;20190;-79
2023/06/23 10:49:46;;;;;;;2.22;1.92;;;;;31.50;102219.00;;;;5085022;28;20238;-79
2023/06/23 10:52:14;;;;;;;3.00;2.13;;;;;31.50;102221.00;;;;5080182;28;20220;-80
2023/06/23 10:54:43;;;;;;;2.65;2.28;;;;;31.60;102227.00;;;;5087591;28;20662;-80
2023/06/23 10:57:10;;;;;;;4.53;2.75;;;;;31.60;102233.00;;;;5092043;28;20592;-79
2023/06/23 10:59:42;;;;;;;2.65;2.30;;;;;31.60;102231.00;;;;5088847;28;20194;-80
2023/06/23 11:02:17;;;;;;;2.83;2.55;;;;;31.60;102236.00;;;;5091052;28;20247;-79
2023/06/23 11:04:52;;;;;;;2.55;2.13;;;;;31.60;102240.00;;;;5091266;28;20200;-79
2023/06/23 11:07:20;;;;;;;2.50;2.22;;;;;31.70;102233.00;;;;5085648;28;20201;-79
2023/06/23 11:09:54;;;;;;;2.55;2.35;;;;;31.70;102241.00;;;;5088193;28;20205;-80
2023/06/23 11:12:40;;;;;;;3.72;2.03;;;;;31.70;102229.00;;;;5088703;28;20312;-80
2023/06/23 11:15:15;;;;;;;1.90;1.63;;;;;31.70;102232.00;;;;5085055;28;20201;-79
2023/06/23 11:17:47;;;;;;;1.92;1.80;;;;;31.80;102236.00;;;;5090259;28;20293;-79
2023/06/23 11:20:29;;;;;;;2.42;2.20;;;;;31.70;102242.00;;;;5091008;28;20190;-79
2023/06/23 11:22:59;;;;;;;4.72;2.03;;;;;31.90;102236.00;;;;5090306;28;20194;-79
2023/06/23 11:25:31;;;;;;;2.83;2.35;;;;;31.80;102236.00;;;;5085290;28;20194;-79
2023/06/23 11:28:23;;;;;;;2.35;2.13;;;;;31.70;102242.00;;;;5086226;28;20205;-80
2023/06/23 11:31:01;;;;;;;3.05;2.33;;;;;31.80;102235.00;;;;5087059;28;20985;-80
2023/06/23 11:33:29;;;;;;;3.88;2.47;;;;;31.90;102237.00;;;;5088832;28;20221;-79
2023/06/23 11:35:59;;;;;;;2.65;2.42;;;;;31.90;102248.00;;;;5087099;28;20199;-79
2023/06/23 11:38:28;;;;;;;4.15;2.35;;;;;31.90;102240.00;;;;5089009;28;20201;-80
2023/06/23 11:40:57;;;;;;;3.67;2.50;;;;;31.90;102245.00;;;;5087047;28;20194;-80
2023/06/23 11:43:24;;;;;;;2.72;2.30;;;;;31.90;102246.00;;;;5069694;28;20215;-79
2023/06/23 11:45:57;;;;;;;3.20;2.35;;;;;31.80;102241.00;;;;5069689;28;20203;-79
2023/06/23 11:48:28;;;;;;;4.70;2.38;;;;;31.90;102241.00;;;;5085290;28;20742;-79
2023/06/23 11:50:58;;;;;;;2.15;1.90;;;;;31.90;102237.00;;;;5081873;28;20217;-80
2023/06/23 11:53:26;;;;;;;3.22;1.92;;;;;31.90;102243.00;;;;5082448;28;20208;-78
2023/06/23 11:55:54;;;;;;;4.72;2.10;;;;;32.00;102247.00;;;;5082659;28;20209;-78
2023/06/23 11:58:22;;;;;;;2.40;2.00;;;;;32.00;102241.00;;;;5080844;28;20209;-80
2023/06/23 12:00:49;;;;;;;2.88;1.95;;;;;31.90;102251.00;;;;5086103;28;20202;-82
2023/06/23 12:03:19;;;;;;;2.70;1.90;;;;;31.90;102249.00;;;;5084713;28;20213;-80
2023/06/23 12:05:46;;;;;;;2.47;1.92;;;;;31.90;102246.00;;;;5085910;28;20205;-79
2023/06/23 12:08:14;;;;;;;2.40;1.75;;;;;31.90;102249.00;;;;5088464;28;20198;-80
2023/06/23 12:10:43;;;;;;;3.42;1.83;;;;;31.90;102250.00;;;;5087506;28;20218;-80
2023/06/23 12:13:11;;;;;;;2.40;1.90;;;;;31.90;102260.00;;;;5089592;28;20222;-80
2023/06/23 12:15:38;;;;;;;2.58;1.77;;;;;31.90;102252.00;;;;5081746;28;20202;-82